Time;durP1;ratioP1;P1;durP2;ratioP2;P2;SDS_P1;SDS_P2;PMS_P1;PMS_P2;Temp;Humidity;BMP_temperature;BMP_pressure;BME280_temperature;BME280_humidity;BME280_pressure;Samples;Min_cycle;Max_cycle;Signal;HPM_P1;HPM_P2
2023/04/06 00:00:49;;;;;;;11.43;10.23;;;;;;;7.39;46.27;99287.38;5094048;28;20020;-78
2023/04/06 00:03:15;;;;;;;11.48;10.27;;;;;;;7.29;46.33;99278.84;5094062;28;20030;-78
2023/04/06 00:05:41;;;;;;;11.18;10.18;;;;;;;7.53;46.28;99292.00;5093863;28;20027;-78
2023/04/06 00:08:06;;;;;;;10.40;9.40;;;;;;;7.56;46.78;99296.13;5093987;28;20035;-77
2023/04/06 00:10:32;;;;;;;10.88;9.88;;;;;;;6.94;46.55;99201.22;5093809;28;20020;-78
2023/04/06 00:12:58;;;;;;;10.77;9.88;;;;;;;7.06;46.25;99218.28;5093816;28;20016;-78
2023/04/06 00:15:24;;;;;;;11.38;10.27;;;;;;;7.50;46.64;99296.78;5093733;28;20073;-78
2023/04/06 00:17:49;;;;;;;11.68;10.45;;;;;;;7.28;46.28;99262.28;5093728;28;20016;-77
2023/04/06 00:20:16;;;;;;;11.35;10.25;;;;;;;7.20;46.93;99249.13;5093805;28;20137;-78
2023/04/06 00:22:41;;;;;;;10.25;9.25;;;;;;;7.24;46.29;99247.81;5093702;28;20095;-78
2023/04/06 00:25:07;;;;;;;11.10;10.10;;;;;;;6.92;46.65;99193.50;5093277;28;20042;-78
2023/04/06 00:27:32;;;;;;;11.25;10.25;;;;;;;7.56;46.74;99280.34;5093488;28;20554;-77
2023/04/06 00:29:58;;;;;;;11.75;10.65;;;;;;;7.01;46.26;99195.16;5093161;28;20024;-78
2023/04/06 00:32:23;;;;;;;11.35;10.25;;;;;;;7.17;46.84;99201.38;5093206;28;20023;-78
2023/04/06 00:34:48;;;;;;;10.98;9.65;;;;;;;7.43;46.19;99253.72;5093229;28;20008;-78
2023/04/06 00:37:14;;;;;;;11.45;10.35;;;;;;;7.08;46.55;99203.19;5093141;28;20081;-78
2023/04/06 00:39:39;;;;;;;11.23;10.18;;;;;;;7.00;46.37;99206.63;5093147;28;20012;-78
2023/04/06 00:42:14;;;;;;;11.48;10.38;;;;;;;7.26;46.58;99247.66;5093239;28;20034;-77
2023/04/06 00:44:41;;;;;;;10.85;9.85;;;;;;;7.22;47.13;99260.31;5092942;28;20035;-77
2023/04/06 00:47:07;;;;;;;11.70;10.57;;;;;;;6.61;47.06;99179.34;5091591;28;20016;-79
2023/04/06 00:49:33;;;;;;;10.85;9.75;;;;;;;7.08;46.78;99254.88;5092947;28;20024;-78
2023/04/06 00:51:59;;;;;;;10.80;9.77;;;;;;;6.88;47.15;99215.81;5092875;28;20028;-78
2023/04/06 00:54:24;;;;;;;11.43;10.32;;;;;;;6.70;46.82;99173.16;5092807;28;20458;-77
2023/04/06 00:56:50;;;;;;;10.80;9.80;;;;;;;7.23;46.83;99251.44;5093155;28;20031;-78
2023/04/06 00:59:15;;;;;;;10.43;9.43;;;;;;;6.58;46.91;99156.88;5092868;28;20457;-78
2023/04/06 01:01:41;;;;;;;8.70;7.90;;;;;;;6.88;46.81;99202.69;5092819;28;20397;-78
2023/04/06 01:04:06;;;;;;;9.73;8.82;;;;;;;6.89;46.96;99211.38;5092657;28;20412;-78
2023/04/06 01:06:32;;;;;;;10.00;9.05;;;;;;;7.08;46.84;99249.63;5091437;28;20024;-78
2023/04/06 01:08:57;;;;;;;10.45;9.45;;;;;;;6.71;47.01;99187.09;5091837;28;20098;-77
2023/04/06 01:11:23;;;;;;;10.32;9.27;;;;;;;7.14;47.18;99254.22;5091377;28;20484;-78
2023/04/06 01:13:48;;;;;;;10.48;9.48;;;;;;;7.19;46.93;99249.31;5092704;28;20095;-77
2023/04/06 01:16:14;;;;;;;9.70;8.70;;;;;;;7.20;47.29;99245.69;5092409;28;20485;-77
2023/04/06 01:18:40;;;;;;;9.73;8.75;;;;;;;6.43;46.89;99173.41;5092356;28;20023;-78
2023/04/06 01:21:05;;;;;;;9.02;8.07;;;;;;;6.63;46.84;99198.38;5092298;28;20027;-78
2023/04/06 01:23:31;;;;;;;9.25;8.45;;;;;;;6.73;46.67;99222.69;5090874;28;20032;-78
2023/04/06 01:25:56;;;;;;;9.52;8.63;;;;;;;6.62;46.97;99188.84;5091979;28;20094;-78
2023/04/06 01:28:21;;;;;;;9.52;8.63;;;;;;;6.67;46.85;99203.13;5092162;28;20024;-78
2023/04/06 01:30:47;;;;;;;9.13;8.32;;;;;;;6.91;46.63;99235.66;5092048;28;20103;-78
2023/04/06 01:33:12;;;;;;;9.32;8.48;;;;;;;6.74;46.68;99184.97;5124811;27;20028;-78
2023/04/06 01:35:38;;;;;;;8.63;7.82;;;;;;;6.94;46.56;99217.78;5092013;28;20041;-78
2023/04/06 01:38:03;;;;;;;8.68;7.88;;;;;;;6.88;46.44;99200.06;5092163;28;20065;-78
2023/04/06 01:40:29;;;;;;;9.65;8.52;;;;;;;7.15;46.50;99233.06;5090794;28;20458;-78
2023/04/06 01:42:54;;;;;;;8.80;8.00;;;;;;;6.67;45.96;99155.09;5092179;28;20024;-78
2023/04/06 01:45:20;;;;;;;8.80;8.00;;;;;;;6.46;45.78;99139.00;5092019;28;20020;-78
2023/04/06 01:47:46;;;;;;;9.13;8.23;;;;;;;7.17;46.04;99238.13;5091887;28;20039;-78
2023/04/06 01:50:11;;;;;;;9.27;8.10;;;;;;;7.19;46.39;99228.28;5091879;28;20497;-78
2023/04/06 01:52:37;;;;;;;11.05;9.63;;;;;;;6.43;46.55;99106.03;5091957;28;20023;-78
2023/04/06 01:55:03;;;;;;;10.02;9.02;;;;;;;6.50;45.67;99117.53;5091925;28;20027;-78
2023/04/06 01:57:28;;;;;;;8.65;7.85;;;;;;;6.72;45.94;99141.50;5091743;28;20032;-77
2023/04/06 01:59:54;;;;;;;8.48;7.68;;;;;;;6.74;45.98;99148.25;5091745;28;20103;-77
2023/04/06 02:02:19;;;;;;;8.98;8.13;;;;;;;6.92;46.31;99167.25;5091756;28;20150;-78
2023/04/06 02:04:45;;;;;;;9.00;8.07;;;;;;;7.08;46.14;99184.00;5091836;28;20030;-77
2023/04/06 02:07:10;;;;;;;9.05;8.25;;;;;;;7.19;45.80;99202.03;5091916;28;20055;-78
2023/04/06 02:09:36;;;;;;;8.13;7.35;;;;;;;7.24;46.27;99212.88;5091858;28;20023;-79
2023/04/06 02:12:01;;;;;;;8.80;7.95;;;;;;;7.26;46.00;99229.28;5091687;28;20107;-78
2023/04/06 02:14:27;;;;;;;8.10;7.30;;;;;;;7.14;45.42;99213.03;5091686;28;20028;-78
2023/04/06 02:16:53;;;;;;;8.50;7.63;;;;;;;7.11;45.68;99215.16;5091750;28;20016;-77
2023/04/06 02:19:18;;;;;;;8.40;7.60;;;;;;;6.82;46.06;99182.34;5091535;28;20390;-78
2023/04/06 02:21:44;;;;;;;8.50;7.70;;;;;;;7.03;45.87;99225.66;5091335;28;20020;-76
2023/04/06 02:24:09;;;;;;;8.90;8.00;;;;;;;6.62;45.85;99157.38;5091528;28;20386;-77
2023/04/06 02:26:35;;;;;;;8.13;7.43;;;;;;;6.31;46.00;99115.22;5091223;28;20432;-77
2023/04/06 02:29:01;;;;;;;8.50;7.70;;;;;;;6.90;46.11;99215.66;5090170;28;20490;-78
2023/04/06 02:31:27;;;;;;;7.53;6.93;;;;;;;5.97;45.67;99066.31;5091433;28;20024;-77
2023/04/06 02:33:52;;;;;;;11.73;9.93;;;;;;;6.36;46.37;99160.13;5090191;28;20027;-79
2023/04/06 02:36:18;;;;;;;8.30;7.50;;;;;;;6.75;46.30;99212.03;5090153;28;20042;-78
2023/04/06 02:38:43;;;;;;;8.65;7.85;;;;;;;6.91;45.51;99214.66;5091405;28;20112;-78
2023/04/06 02:41:09;;;;;;;9.00;8.15;;;;;;;6.37;45.50;99125.88;5091361;28;20099;-78
2023/04/06 02:43:34;;;;;;;7.30;6.70;;;;;;;6.75;45.67;99193.66;5091274;28;20023;-78
2023/04/06 02:46:00;;;;;;;8.05;7.30;;;;;;;6.72;45.75;99202.66;5091309;28;20026;-77
2023/04/06 02:48:25;;;;;;;8.35;7.50;;;;;;;6.55;45.59;99165.06;5091165;28;20412;-78
2023/04/06 02:50:51;;;;;;;8.52;7.82;;;;;;;6.33;45.29;99105.38;5091054;28;20027;-78
2023/04/06 02:53:16;;;;;;;8.63;7.82;;;;;;;6.60;45.43;99144.44;5090945;28;20023;-78
2023/04/06 02:55:42;;;;;;;8.77;7.68;;;;;;;6.97;45.72;99217.47;5091124;28;20046;-78
2023/04/06 02:58:07;;;;;;;8.18;7.47;;;;;;;6.77;45.19;99192.50;5091124;28;20019;-78
2023/04/06 03:00:32;;;;;;;8.85;8.05;;;;;;;6.44;45.67;99139.16;5090857;28;20458;-78
2023/04/06 03:02:58;;;;;;;9.40;8.40;;;;;;;6.78;45.67;99196.78;5090833;28;20028;-78
2023/04/06 03:05:23;;;;;;;9.95;7.93;;;;;;;6.37;45.48;99135.53;5090887;28;20020;-78
2023/04/06 03:07:49;;;;;;;8.85;8.05;;;;;;;6.49;45.49;99164.91;5091608;28;20034;-78
2023/04/06 03:10:14;;;;;;;9.00;8.10;;;;;;;6.76;45.48;99205.78;5091237;28;20157;-77
2023/04/06 03:12:41;;;;;;;16.67;12.80;;;;;;;6.43;45.45;99145.38;5091237;28;20023;-78
2023/04/06 03:15:07;;;;;;;9.65;8.75;;;;;;;6.67;45.71;99197.06;5091115;28;20099;-78
2023/04/06 03:17:33;;;;;;;9.15;8.25;;;;;;;6.34;45.45;99136.69;5090720;28;20525;-78
2023/04/06 03:19:58;;;;;;;9.18;8.35;;;;;;;5.75;45.49;99049.34;5090706;28;20102;-78
2023/04/06 03:22:24;;;;;;;9.63;8.82;;;;;;;6.12;45.37;99113.69;5091036;28;20045;-78
2023/04/06 03:24:49;;;;;;;9.57;8.68;;;;;;;6.29;45.73;99133.72;5090856;28;20044;-77
2023/04/06 03:27:15;;;;;;;8.95;8.15;;;;;;;6.64;45.85;99195.59;5090849;28;20020;-78
2023/04/06 03:29:40;;;;;;;10.20;9.30;;;;;;;6.14;45.87;99116.97;5090936;28;20028;-78
2023/04/06 03:32:06;;;;;;;9.95;8.80;;;;;;;6.19;45.71;99132.22;5091031;28;20020;-78
2023/04/06 03:34:31;;;;;;;9.65;8.52;;;;;;;6.23;45.81;99157.13;5094461;28;20024;-77
2023/04/06 03:36:56;;;;;;;9.73;8.82;;;;;;;6.60;46.09;99224.91;5094423;28;20020;-77
2023/04/06 03:39:22;;;;;;;9.13;8.32;;;;;;;6.12;45.78;99139.09;5094457;28;20023;-77
2023/04/06 03:41:47;;;;;;;9.98;9.07;;;;;;;6.35;46.00;99192.56;5094522;28;20020;-78
2023/04/06 03:44:12;;;;;;;9.68;8.77;;;;;;;6.13;46.17;99146.78;5094350;28;20451;-78
2023/04/06 03:46:38;;;;;;;10.48;9.48;;;;;;;6.42;46.47;99174.38;5095015;28;20032;-78
2023/04/06 03:49:03;;;;;;;9.77;8.88;;;;;;;5.86;46.65;99103.25;5092953;28;20084;-77
2023/04/06 03:51:29;;;;;;;11.35;10.25;;;;;;;6.01;46.39;99141.03;5094132;28;20522;-78
2023/04/06 03:53:54;;;;;;;10.20;9.25;;;;;;;6.29;46.30;99167.81;5094040;28;20016;-78
2023/04/06 03:56:20;;;;;;;10.73;9.73;;;;;;;6.36;46.39;99171.44;5094106;28;20530;-77
2023/04/06 03:58:49;;;;;;;9.68;8.77;;;;;;;6.57;46.18;99210.31;5094039;28;20385;-78
2023/04/06 04:01:14;;;;;;;10.30;9.07;;;;;;;6.57;46.48;99209.50;5094027;28;20077;-78
2023/04/06 04:03:40;;;;;;;9.93;8.95;;;;;;;6.01;46.67;99116.63;5094174;28;20024;-78
2023/04/06 04:06:05;;;;;;;10.65;9.65;;;;;;;6.18;46.28;99147.13;5093813;28;20059;-78
2023/04/06 04:08:31;;;;;;;9.45;8.48;;;;;;;5.99;46.20;99123.81;5093956;28;20058;-78
2023/04/06 04:10:56;;;;;;;10.48;9.57;;;;;;;6.38;46.70;99190.44;5093817;28;20021;-78
2023/04/06 04:13:22;;;;;;;9.80;8.80;;;;;;;5.91;46.62;99118.50;5093701;28;20026;-77
2023/04/06 04:15:47;;;;;;;11.65;9.38;;;;;;;6.00;46.62;99133.31;5093880;28;20018;-77
2023/04/06 04:18:13;;;;;;;10.27;9.27;;;;;;;6.61;46.63;99222.13;5094009;28;20012;-78
2023/04/06 04:20:38;;;;;;;10.60;9.60;;;;;;;6.30;46.07;99187.81;5093618;28;20099;-77
2023/04/06 04:23:04;;;;;;;12.57;10.73;;;;;;;6.40;46.69;99190.28;5093621;28;20164;-77
2023/04/06 04:25:29;;;;;;;11.60;10.45;;;;;;;6.20;46.44;99176.63;5092145;28;20180;-77
2023/04/06 04:27:55;;;;;;;11.25;9.48;;;;;;;6.37;46.69;99204.53;5093709;28;20016;-77
2023/04/06 04:30:21;;;;;;;11.05;9.88;;;;;;;6.01;46.48;99154.13;5126506;27;20098;-77
2023/04/06 04:32:46;;;;;;;9.10;8.20;;;;;;;6.20;47.12;99207.25;5091998;28;20049;-78
2023/04/06 04:35:13;;;;;;;9.88;9.00;;;;;;;6.13;46.40;99172.19;5093213;28;20016;-78
2023/04/06 04:37:39;;;;;;;11.18;10.07;;;;;;;6.42;47.19;99200.63;5093263;28;20020;-77
2023/04/06 04:40:05;;;;;;;11.02;9.23;;;;;;;6.15;46.86;99157.13;5093325;28;20027;-78
2023/04/06 04:42:30;;;;;;;11.00;9.93;;;;;;;6.61;46.86;99216.06;5093180;28;20073;-78
2023/04/06 04:44:56;;;;;;;10.52;9.27;;;;;;;6.53;46.72;99216.06;5092988;28;20458;-78
2023/04/06 04:47:21;;;;;;;10.93;9.82;;;;;;;6.15;46.65;99144.81;5093045;28;20466;-78
2023/04/06 04:49:47;;;;;;;10.30;9.27;;;;;;;6.56;47.04;99192.13;5093042;28;20020;-78
2023/04/06 04:52:12;;;;;;;11.48;10.30;;;;;;;6.44;46.48;99167.19;5093008;28;20020;-78
2023/04/06 04:54:38;;;;;;;10.57;9.52;;;;;;;6.63;46.52;99201.00;5091686;28;20016;-77
2023/04/06 04:57:04;;;;;;;10.13;9.15;;;;;;;6.81;46.62;99235.81;5093009;28;20016;-78
2023/04/06 04:59:29;;;;;;;9.85;8.88;;;;;;;6.73;46.91;99224.47;5091588;28;20020;-78
2023/04/06 05:01:55;;;;;;;10.73;9.55;;;;;;;6.19;46.78;99167.13;5092687;28;20098;-78
2023/04/06 05:04:20;;;;;;;10.80;9.18;;;;;;;6.54;47.20;99222.94;5091238;28;20398;-79
2023/04/06 05:06:46;;;;;;;10.70;9.55;;;;;;;6.57;46.54;99199.84;5092670;28;20028;-77
2023/04/06 05:09:11;;;;;;;11.02;9.57;;;;;;;6.75;46.58;99225.16;5091377;28;20142;-78
2023/04/06 05:11:37;;;;;;;10.00;9.10;;;;;;;6.80;47.10;99225.47;5092620;28;20028;-78
2023/04/06 05:14:02;;;;;;;10.80;9.55;;;;;;;6.40;47.05;99160.63;5096337;27;20024;-77
2023/04/06 05:16:28;;;;;;;11.27;9.77;;;;;;;6.56;46.97;99179.81;5133367;27;20019;-78
2023/04/06 05:18:53;;;;;;;12.23;11.02;;;;;;;6.73;46.96;99200.88;5131672;27;20023;-76
2023/04/06 05:21:19;;;;;;;11.95;10.73;;;;;;;6.86;46.39;99204.66;5132121;27;20102;-78
2023/04/06 05:23:44;;;;;;;12.70;10.20;;;;;;;6.87;46.25;99181.88;5133302;27;20019;-78
2023/04/06 05:26:10;;;;;;;11.40;10.30;;;;;;;6.74;46.31;99135.13;5121248;27;20039;-78
2023/04/06 05:28:36;;;;;;;12.05;10.85;;;;;;;6.63;46.72;99098.69;5129092;27;20024;-77
2023/04/06 05:31:01;;;;;;;12.55;11.20;;;;;;;7.16;46.12;99178.75;5129384;27;20564;-78
2023/04/06 05:33:27;;;;;;;12.63;11.32;;;;;;;7.26;46.05;99174.13;5133048;27;20023;-78
2023/04/06 05:35:52;;;;;;;11.93;10.73;;;;;;;7.11;46.34;99170.53;5132939;27;20501;-77
2023/04/06 05:38:18;;;;;;;11.00;9.90;;;;;;;7.48;46.23;99218.13;5132889;27;20531;-77
2023/04/06 05:40:43;;;;;;;12.10;10.15;;;;;;;7.16;45.91;99153.31;5132788;27;20483;-78
2023/04/06 05:43:09;;;;;;;10.85;9.85;;;;;;;6.94;45.81;99117.25;5130895;27;20022;-78
2023/04/06 05:45:34;;;;;;;11.25;10.05;;;;;;;7.29;46.20;99184.31;5132677;27;20031;-78
2023/04/06 05:48:01;;;;;;;12.18;10.88;;;;;;;7.40;46.30;99180.53;5133133;27;20027;-77
2023/04/06 05:50:26;;;;;;;15.60;14.00;;;;;;;7.60;46.39;99215.97;5110359;27;20031;-79
2023/04/06 05:52:52;;;;;;;13.18;11.32;;;;;;;7.70;45.66;99218.44;5110747;28;20029;-77
2023/04/06 05:55:17;;;;;;;13.27;11.90;;;;;;;7.65;45.94;99219.75;5118491;27;20114;-78
2023/04/06 05:57:42;;;;;;;12.43;11.23;;;;;;;7.15;46.29;99150.84;5112069;28;20049;-78
2023/04/06 06:00:09;;;;;;;14.45;12.20;;;;;;;7.37;46.16;99180.84;5112037;28;20098;-79
2023/04/06 06:02:35;;;;;;;10.73;9.73;;;;;;;7.20;45.97;99141.50;5112598;27;20039;-78
2023/04/06 06:05:00;;;;;;;10.93;9.77;;;;;;;7.17;46.29;99118.19;5114178;27;20066;-78
2023/04/06 06:07:26;;;;;;;11.30;10.18;;;;;;;7.36;45.90;99161.66;5111608;28;20135;-78
2023/04/06 06:09:51;;;;;;;10.80;9.70;;;;;;;7.65;46.09;99190.03;5111796;28;20023;-78
2023/04/06 06:12:17;;;;;;;11.40;10.40;;;;;;;7.75;46.03;99222.19;5111470;28;20061;-77
2023/04/06 06:14:42;;;;;;;11.35;10.23;;;;;;;7.08;45.87;99110.50;5110725;27;20495;-77
2023/04/06 06:17:08;;;;;;;11.30;10.07;;;;;;;7.61;46.60;99200.06;5111663;28;20478;-78
2023/04/06 06:19:33;;;;;;;13.80;11.93;;;;;;;7.33;46.43;99161.97;5111614;28;20412;-79
2023/04/06 06:22:01;;;;;;;13.23;11.82;;;;;;;7.32;46.32;99155.91;5111493;28;20011;-78
2023/04/06 06:24:27;;;;;;;10.93;9.82;;;;;;;7.08;46.59;99160.38;5114845;27;20384;-78
2023/04/06 06:26:53;;;;;;;11.57;10.48;;;;;;;7.45;46.61;99200.09;5119898;27;20510;-78
2023/04/06 06:29:18;;;;;;;10.60;9.55;;;;;;;7.04;46.48;99141.50;5104463;28;20027;-77
2023/04/06 06:31:44;;;;;;;12.07;10.18;;;;;;;7.00;46.38;99167.25;5098651;28;20068;-78
2023/04/06 06:34:10;;;;;;;11.73;10.55;;;;;;;7.27;46.12;99192.34;5111856;28;20502;-78
2023/04/06 06:36:35;;;;;;;11.45;10.45;;;;;;;7.39;46.78;99213.84;5102844;28;20509;-77
2023/04/06 06:39:03;;;;;;;12.57;10.60;;;;;;;7.51;46.56;99217.81;5104643;28;20028;-77
2023/04/06 06:41:28;;;;;;;35.95;23.05;;;;;;;7.22;46.61;99155.28;5112481;28;20018;-77
2023/04/06 06:43:54;;;;;;;13.45;10.90;;;;;;;7.29;46.13;99158.88;5119420;27;20019;-78
2023/04/06 06:46:20;;;;;;;11.57;10.38;;;;;;;7.88;46.49;99209.34;5113897;28;20031;-78
2023/04/06 06:48:45;;;;;;;11.27;10.05;;;;;;;7.90;45.85;99214.44;5111888;28;20441;-78
2023/04/06 06:51:11;;;;;;;12.68;10.10;;;;;;;7.54;45.66;99154.41;5111352;28;20033;-77
2023/04/06 06:53:37;;;;;;;15.15;10.85;;;;;;;8.08;45.43;99206.31;5112310;28;20020;-76
2023/04/06 06:56:03;;;;;;;10.80;9.70;;;;;;;7.69;45.15;99128.25;5111407;28;20073;-77
2023/04/06 06:58:28;;;;;;;10.75;9.65;;;;;;;8.15;44.98;99197.56;5109880;28;20030;-77
2023/04/06 07:00:58;;;;;;;9.60;8.70;;;;;;;8.25;44.89;99203.47;5111369;28;20034;-77
2023/04/06 07:03:24;;;;;;;11.00;9.73;;;;;;;8.03;44.95;99162.13;5112314;28;20461;-78
2023/04/06 07:05:52;;;;;;;9.82;8.07;;;;;;;8.55;44.40;99228.19;5112196;28;20118;-77
2023/04/06 07:08:22;;;;;;;11.13;9.68;;;;;;;8.42;44.39;99203.44;5108425;28;20027;-77
2023/04/06 07:10:48;;;;;;;11.75;10.07;;;;;;;8.21;44.62;99167.19;5105698;27;20516;-78
2023/04/06 07:13:20;;;;;;;9.82;8.93;;;;;;;8.43;44.34;99187.47;5113294;27;20416;-77
2023/04/06 07:15:45;;;;;;;9.50;8.52;;;;;;;8.64;44.44;99220.25;5114750;28;20096;-77
2023/04/06 07:18:11;;;;;;;8.60;7.80;;;;;;;8.55;43.77;99198.41;5114940;27;20475;-77
2023/04/06 07:20:37;;;;;;;7.78;7.07;;;;;;;8.60;43.66;99219.78;5110586;27;20028;-77
2023/04/06 07:23:02;;;;;;;11.35;9.32;;;;;;;8.75;43.72;99228.56;5098585;27;20428;-77
2023/04/06 07:25:28;;;;;;;9.65;8.20;;;;;;;8.53;43.69;99177.53;5119784;27;20036;-78
2023/04/06 07:27:53;;;;;;;8.63;7.82;;;;;;;8.44;43.54;99144.38;5105232;27;20024;-77
2023/04/06 07:30:19;;;;;;;8.35;7.53;;;;;;;9.02;43.45;99229.91;5114790;27;20024;-77
2023/04/06 07:32:45;;;;;;;13.88;9.32;;;;;;;9.07;43.66;99232.00;5107007;27;20120;-77
2023/04/06 07:35:10;;;;;;;7.93;7.13;;;;;;;8.51;43.10;99134.81;5111150;28;20023;-78
2023/04/06 07:37:36;;;;;;;8.90;8.00;;;;;;;8.92;43.36;99174.03;5102251;27;20488;-77
2023/04/06 07:40:01;;;;;;;8.27;7.45;;;;;;;9.20;42.97;99219.06;5112155;27;20016;-77
2023/04/06 07:42:26;;;;;;;9.68;8.40;;;;;;;9.16;43.07;99197.53;5105065;28;20149;-78
2023/04/06 07:44:52;;;;;;;8.15;7.30;;;;;;;8.77;43.05;99163.41;5115960;27;20027;-77
2023/04/06 07:47:17;;;;;;;8.73;7.75;;;;;;;8.91;42.93;99164.44;5113857;28;20135;-77
2023/04/06 07:49:43;;;;;;;8.30;7.50;;;;;;;9.23;42.81;99193.19;5104394;27;20043;-77
2023/04/06 07:52:08;;;;;;;8.65;7.85;;;;;;;8.62;42.42;99090.66;5113773;28;20055;-77
2023/04/06 07:54:33;;;;;;;8.43;7.15;;;;;;;8.99;42.96;99134.63;5108171;27;20469;-77
2023/04/06 07:57:02;;;;;;;8.52;7.57;;;;;;;9.55;42.50;99217.59;5109496;28;20026;-77
2023/04/06 07:59:27;;;;;;;8.18;6.65;;;;;;;9.42;42.60;99183.13;5113650;28;20032;-77
2023/04/06 08:01:53;;;;;;;8.43;7.63;;;;;;;9.48;42.51;99185.88;5114973;27;20026;-76
2023/04/06 08:04:18;;;;;;;8.63;7.78;;;;;;;9.69;42.59;99202.81;5107322;28;20020;-78
2023/04/06 08:06:44;;;;;;;10.88;7.95;;;;;;;9.88;42.61;99203.09;5117267;27;20051;-76
2023/04/06 08:09:09;;;;;;;7.78;7.07;;;;;;;9.56;41.96;99140.97;5112629;28;20020;-76
2023/04/06 08:11:35;;;;;;;7.65;6.85;;;;;;;9.08;41.25;99062.47;5110189;27;20047;-77
2023/04/06 08:14:00;;;;;;;8.70;6.70;;;;;;;9.46;41.58;99121.16;5103918;27;20019;-77
2023/04/06 08:16:26;;;;;;;8.98;7.55;;;;;;;10.06;41.48;99194.00;5113696;28;20377;-77
2023/04/06 08:18:51;;;;;;;8.20;7.15;;;;;;;9.76;41.75;99138.66;5108927;28;20030;-77
2023/04/06 08:21:16;;;;;;;9.65;7.40;;;;;;;10.26;41.45;99195.09;5111495;28;20038;-77
2023/04/06 08:23:42;;;;;;;7.68;6.40;;;;;;;9.77;41.06;99092.00;5104165;28;20034;-76
2023/04/06 08:26:07;;;;;;;7.43;6.72;;;;;;;10.52;41.07;99183.25;5117798;27;20045;-77
2023/04/06 08:28:34;;;;;;;9.00;8.13;;;;;;;10.55;41.06;99161.75;5106739;27;20032;-77
2023/04/06 08:31:03;;;;;;;8.63;7.82;;;;;;;10.89;40.74;99174.28;5105623;27;20019;-77
2023/04/06 08:33:29;;;;;;;10.05;8.23;;;;;;;10.86;40.61;99138.50;5112109;27;20453;-77
2023/04/06 08:35:54;;;;;;;9.65;8.65;;;;;;;11.19;40.17;99174.97;5113355;28;20072;-77
2023/04/06 08:38:20;;;;;;;8.57;7.50;;;;;;;10.53;40.20;99053.72;5120632;27;20022;-76
2023/04/06 08:40:47;;;;;;;8.10;7.40;;;;;;;11.41;40.38;99173.94;5132933;27;20023;-77
2023/04/06 08:43:14;;;;;;;8.00;7.20;;;;;;;11.13;39.78;99121.03;5103964;27;20024;-79
2023/04/06 08:45:42;;;;;;;8.40;7.60;;;;;;;11.14;40.07;99133.25;5104167;27;20483;-77
2023/04/06 08:48:08;;;;;;;7.53;6.70;;;;;;;11.72;39.73;99171.69;5111383;27;20012;-76
2023/04/06 08:50:35;;;;;;;13.77;10.63;;;;;;;11.29;39.51;99093.53;5100162;28;20023;-77
2023/04/06 08:53:01;;;;;;;11.90;10.35;;;;;;;11.99;39.24;99179.84;5107335;28;20076;-77
2023/04/06 08:55:27;;;;;;;7.68;6.97;;;;;;;11.42;39.60;99073.28;5113138;27;20210;-78
2023/04/06 08:57:56;;;;;;;8.10;6.88;;;;;;;12.08;39.13;99166.25;5108216;27;20696;-76
2023/04/06 09:00:22;;;;;;;7.63;6.93;;;;;;;12.15;38.52;99125.75;5104081;28;20019;-77
2023/04/06 09:02:49;;;;;;;7.47;6.78;;;;;;;12.02;38.47;99092.13;5128459;27;21448;-74
2023/04/06 09:05:15;;;;;;;8.68;7.13;;;;;;;12.80;38.61;99166.69;5112389;27;20030;-77
2023/04/06 09:07:41;;;;;;;8.20;7.40;;;;;;;12.66;38.15;99140.19;5100315;27;20028;-78
2023/04/06 09:10:07;;;;;;;6.93;6.22;;;;;;;11.98;37.69;99012.34;5106016;27;20022;-77
2023/04/06 09:12:33;;;;;;;8.48;7.22;;;;;;;13.02;37.98;99157.53;5103600;27;20023;-77
2023/04/06 09:15:00;;;;;;;8.20;7.40;;;;;;;12.53;37.68;99071.28;5107214;27;20107;-77
2023/04/06 09:17:28;;;;;;;7.43;6.82;;;;;;;13.19;37.53;99129.66;5105292;27;20015;-77
2023/04/06 09:19:53;;;;;;;7.72;6.97;;;;;;;13.57;37.13;99163.50;5104830;27;20024;-77
2023/04/06 09:22:19;;;;;;;7.20;6.55;;;;;;;13.73;36.96;99155.09;5096662;27;20023;-77
2023/04/06 09:24:51;;;;;;;8.93;7.80;;;;;;;13.32;36.46;99100.47;5105083;27;20462;-77
2023/04/06 09:27:17;;;;;;;7.70;6.95;;;;;;;13.37;36.71;99081.28;5106184;27;20459;-77
2023/04/06 09:29:44;;;;;;;8.18;7.43;;;;;;;13.97;36.22;99133.19;5111738;27;20028;-77
2023/04/06 09:32:11;;;;;;;6.93;6.30;;;;;;;14.19;35.97;99138.22;5113790;27;20031;-75
2023/04/06 09:34:38;;;;;;;9.20;8.18;;;;;;;14.20;36.18;99106.16;5100745;27;20092;-78
2023/04/06 09:37:17;;;;;;;6.97;6.35;;;;;;;14.55;34.25;99127.03;5108018;27;20019;-77
2023/04/06 09:39:43;;;;;;;7.68;6.97;;;;;;;14.30;35.25;99071.16;5110267;27;20507;-78
2023/04/06 09:42:09;;;;;;;7.68;6.88;;;;;;;14.30;34.88;99082.59;5103489;27;20024;-78
2023/04/06 09:44:34;;;;;;;8.05;7.25;;;;;;;14.56;35.20;99128.66;5108523;27;20027;-78
2023/04/06 09:47:01;;;;;;;7.88;7.18;;;;;;;13.92;35.37;99071.13;5128262;27;20022;-76
2023/04/06 09:49:33;;;;;;;7.60;6.63;;;;;;;14.11;35.35;99115.34;5100863;27;20031;-75
2023/04/06 09:52:01;;;;;;;8.05;7.25;;;;;;;13.92;35.73;99118.91;5093787;27;20043;-76
2023/04/06 09:54:29;;;;;;;9.30;7.68;;;;;;;13.74;35.47;99031.22;5099692;28;20043;-77
2023/04/06 09:56:58;;;;;;;6.88;6.15;;;;;;;14.69;35.12;99114.47;5089959;28;20119;-76
2023/04/06 09:59:51;;;;;;;6.90;6.20;;;;;;;15.00;34.20;99117.13;5092890;28;20038;-76
2023/04/06 10:02:32;;;;;;;9.32;8.43;;;;;;;14.72;34.31;99088.28;5088604;28;20465;-77
2023/04/06 10:05:07;;;;;;;9.80;8.82;;;;;;;14.67;34.79;99072.19;5086102;28;20035;-77
2023/04/06 10:07:33;;;;;;;7.93;7.03;;;;;;;14.96;34.64;99113.28;5071038;28;20029;-77
2023/04/06 10:10:01;;;;;;;6.53;5.93;;;;;;;14.74;34.74;99123.44;5079191;28;20493;-77
2023/04/06 10:12:26;;;;;;;7.05;6.45;;;;;;;14.44;34.93;99107.28;5093642;28;20028;-77
2023/04/06 10:14:53;;;;;;;7.95;7.10;;;;;;;14.38;35.04;99112.59;5096084;28;20028;-76
2023/04/06 10:17:18;;;;;;;8.40;7.57;;;;;;;14.07;34.99;99070.84;5090875;28;20045;-76
2023/04/06 10:19:55;;;;;;;9.93;7.35;;;;;;;13.87;35.34;99033.81;5095635;28;20019;-76
2023/04/06 10:22:36;;;;;;;10.82;9.57;;;;;;;14.01;35.55;99075.19;5111586;28;20027;-76
2023/04/06 10:25:02;;;;;;;7.22;6.57;;;;;;;14.07;34.99;99069.03;5087259;28;20046;-78
2023/04/06 10:27:32;;;;;;;7.38;6.60;;;;;;;14.28;35.26;99100.59;5091804;28;20036;-76
2023/04/06 10:30:02;;;;;;;8.98;7.18;;;;;;;14.01;34.71;99040.66;5106593;28;20114;-76
2023/04/06 10:32:38;;;;;;;5.68;5.13;;;;;;;14.06;34.58;99054.13;5087952;28;20020;-77
2023/04/06 10:35:10;;;;;;;7.18;6.47;;;;;;;14.44;33.97;99099.31;5099442;28;20107;-77
2023/04/06 10:37:47;;;;;;;6.82;6.22;;;;;;;14.34;34.15;99067.06;5089940;28;20028;-76
2023/04/06 10:40:24;;;;;;;6.78;6.13;;;;;;;14.71;34.39;99064.59;5092196;28;20107;-77
2023/04/06 10:42:51;;;;;;;7.05;6.35;;;;;;;15.15;34.29;99084.91;5092416;28;20019;-77
2023/04/06 10:45:30;;;;;;;8.85;7.28;;;;;;;14.82;34.13;99034.66;5104947;28;20056;-74
2023/04/06 10:47:56;;;;;;;7.82;6.82;;;;;;;15.07;34.02;99037.31;5099321;28;20023;-77
2023/04/06 10:50:22;;;;;;;7.10;6.43;;;;;;;15.64;33.80;99086.69;5091828;28;20032;-78
2023/04/06 10:52:59;;;;;;;6.90;6.20;;;;;;;14.21;32.99;98883.94;5096104;28;20043;-78
2023/04/06 10:55:26;;;;;;;7.05;6.40;;;;;;;15.05;33.49;99012.78;5111122;28;20034;-78
2023/04/06 10:57:51;;;;;;;6.82;6.15;;;;;;;14.93;33.84;99040.09;5083379;28;20027;-79
2023/04/06 11:00:19;;;;;;;5.85;5.25;;;;;;;15.13;33.57;99029.28;5094969;28;20031;-79
2023/04/06 11:02:44;;;;;;;5.45;4.95;;;;;;;15.03;33.53;99017.50;5093607;28;20023;-79
2023/04/06 11:05:12;;;;;;;7.80;6.47;;;;;;;15.03;33.44;99030.81;5094725;28;20024;-78
2023/04/06 11:07:39;;;;;;;6.32;5.72;;;;;;;15.16;33.31;99070.56;5093366;28;20023;-79
2023/04/06 11:10:06;;;;;;;6.63;6.03;;;;;;;14.67;33.46;99023.53;5092942;28;20043;-79
2023/04/06 11:12:31;;;;;;;5.03;4.53;;;;;;;14.33;33.31;99022.94;5112902;28;20034;-79
2023/04/06 11:15:04;;;;;;;6.55;5.72;;;;;;;14.48;33.96;99060.66;5101905;28;20032;-78
2023/04/06 11:17:35;;;;;;;7.13;6.03;;;;;;;14.52;34.18;99059.19;5104232;28;20012;-79
2023/04/06 11:20:01;;;;;;;6.82;6.18;;;;;;;14.54;34.26;99027.94;5103085;28;20020;-79
2023/04/06 11:22:26;;;;;;;6.78;6.10;;;;;;;15.24;33.43;99051.66;5104273;28;20042;-79
2023/04/06 11:24:53;;;;;;;5.80;5.20;;;;;;;15.44;32.98;98979.63;5090058;28;20044;-78
2023/04/06 11:27:19;;;;;;;7.05;5.93;;;;;;;16.28;32.56;99048.00;5103802;28;20032;-78
2023/04/06 11:29:48;;;;;;;6.38;5.78;;;;;;;16.40;31.66;99029.41;5092796;28;20084;-79